createdAt,value
2023-01-10T00:00:59.206Z,25.97
2023-01-10T00:03:47.978Z,25.90
2023-01-10T00:06:39.322Z,25.88
2023-01-10T00:09:29.506Z,25.88
2023-01-10T00:12:35.703Z,25.89
2023-01-10T00:15:25.842Z,25.89
2023-01-10T00:18:14.434Z,25.83
2023-01-10T00:21:09.425Z,25.77
2023-01-10T00:23:59.318Z,25.81
2023-01-10T00:26:52.073Z,25.76
2023-01-10T00:29:41.954Z,25.73
2023-01-10T00:32:31.982Z,25.80
2023-01-10T00:35:20.905Z,25.73
2023-01-10T00:38:12.479Z,25.71
2023-01-10T00:41:01.211Z,25.74
2023-01-10T00:43:58.039Z,25.69
2023-01-10T00:46:46.659Z,25.72
2023-01-10T00:49:36.754Z,25.79
2023-01-10T00:52:25.404Z,25.69
2023-01-10T00:55:14.097Z,25.70
2023-01-10T00:58:02.883Z,25.66
2023-01-10T01:00:51.591Z,25.69
2023-01-10T01:03:40.371Z,25.69
2023-01-10T01:06:31.524Z,25.64
2023-01-10T01:09:20.145Z,25.62
2023-01-10T01:12:09.381Z,25.61
2023-01-10T01:14:58.225Z,25.62
2023-01-10T01:17:47.752Z,25.58
2023-01-10T01:20:36.462Z,25.60
2023-01-10T01:23:26.682Z,25.62
2023-01-10T01:26:15.395Z,25.61
2023-01-10T01:29:04.104Z,25.58
2023-01-10T01:31:52.875Z,25.59
2023-01-10T01:34:41.605Z,25.55
2023-01-10T01:37:30.159Z,25.54
2023-01-10T01:40:21.753Z,25.52
2023-01-10T01:43:23.674Z,25.56
2023-01-10T01:46:12.316Z,25.61
2023-01-10T01:49:01.085Z,25.63
2023-01-10T01:51:51.365Z,25.69
2023-01-10T01:54:40.072Z,25.69
2023-01-10T01:57:33.044Z,25.69
2023-01-10T02:00:24.690Z,25.65
2023-01-10T02:03:13.580Z,25.65
2023-01-10T02:06:02.367Z,25.66
2023-01-10T02:08:54.839Z,25.66
2023-01-10T02:11:43.603Z,25.66
2023-01-10T02:14:33.646Z,25.65
2023-01-10T02:17:22.297Z,25.59
2023-01-10T02:20:13.776Z,25.60
2023-01-10T02:23:27.502Z,25.66
2023-01-10T02:27:00.465Z,25.66
2023-01-10T02:30:28.346Z,25.66
2023-01-10T02:33:22.896Z,25.68
2023-01-10T02:36:32.866Z,25.63
2023-01-10T02:39:25.946Z,25.63
2023-01-10T02:42:18.054Z,25.57
2023-01-10T02:45:10.288Z,25.65
2023-01-10T02:47:59.482Z,25.68
2023-01-10T02:51:09.835Z,25.60
2023-01-10T02:54:02.559Z,25.58
2023-01-10T02:57:13.864Z,25.57
2023-01-10T03:00:13.548Z,25.62
2023-01-10T03:03:14.671Z,25.63
2023-01-10T03:06:19.106Z,25.62
2023-01-10T03:09:13.731Z,25.59
2023-01-10T03:12:12.044Z,25.62
2023-01-10T03:15:01.593Z,25.63
2023-01-10T03:17:53.432Z,25.58
2023-01-10T03:20:44.811Z,25.58
2023-01-10T03:23:35.897Z,25.61
2023-01-10T03:26:28.911Z,25.55
2023-01-10T03:29:21.260Z,25.56
2023-01-10T03:32:11.910Z,25.59
2023-01-10T03:35:01.071Z,25.54
2023-01-10T03:37:56.359Z,25.54
2023-01-10T03:40:53.307Z,25.57
2023-01-10T03:44:12.758Z,25.62
2023-01-10T03:47:04.132Z,25.61
2023-01-10T03:49:58.327Z,25.65
2023-01-10T03:52:47.340Z,25.77
2023-01-10T03:55:37.154Z,25.71
2023-01-10T03:58:27.347Z,25.74
2023-01-10T04:01:17.215Z,25.73
2023-01-10T04:04:06.134Z,25.68
2023-01-10T04:06:54.836Z,25.66
2023-01-10T04:09:43.533Z,25.68
2023-01-10T04:12:32.130Z,25.72
2023-01-10T04:15:22.187Z,25.68
2023-01-10T04:18:10.811Z,25.72
2023-01-10T04:20:59.395Z,25.64
2023-01-10T04:23:48.064Z,25.68
2023-01-10T04:26:37.536Z,25.69
2023-01-10T04:29:27.118Z,25.71
2023-01-10T04:32:17.148Z,25.67
2023-01-10T04:35:06.160Z,25.62
2023-01-10T04:37:54.831Z,25.67
2023-01-10T04:40:43.668Z,25.65
2023-01-10T04:43:32.288Z,25.61
2023-01-10T04:46:20.959Z,25.55
2023-01-10T04:49:13.646Z,25.58
2023-01-10T04:52:02.306Z,25.57
2023-01-10T04:54:50.853Z,25.45
2023-01-10T04:57:39.472Z,25.44
2023-01-10T05:00:28.279Z,25.48
2023-01-10T05:03:20.188Z,25.49
2023-01-10T05:06:10.273Z,25.49
2023-01-10T05:08:59.011Z,25.42
2023-01-10T05:11:47.657Z,25.44
2023-01-10T05:14:36.334Z,25.35
2023-01-10T05:17:25.058Z,25.37
2023-01-10T05:20:14.518Z,25.39
2023-01-10T05:23:04.589Z,25.33
2023-01-10T05:25:53.220Z,25.18
2023-01-10T05:28:42.107Z,25.06
2023-01-10T05:31:30.884Z,25.10
2023-01-10T05:34:19.528Z,25.10
2023-01-10T05:37:08.202Z,25.01
2023-01-10T05:39:58.338Z,25.00
2023-01-10T05:42:46.933Z,25.16
2023-01-10T05:45:35.655Z,25.16
2023-01-10T05:48:24.540Z,25.11
2023-01-10T05:51:13.221Z,25.03
2023-01-10T05:54:01.850Z,25.01
2023-01-10T05:56:51.859Z,24.98
2023-01-10T05:59:40.541Z,25.02
2023-01-10T06:02:29.341Z,25.04
2023-01-10T06:05:18.224Z,25.05
2023-01-10T06:08:06.981Z,25.09
2023-01-10T06:10:55.742Z,25.06
2023-01-10T06:13:45.759Z,25.07
2023-01-10T06:16:34.553Z,25.07
2023-01-10T06:19:23.159Z,25.08
2023-01-10T06:22:11.802Z,25.09
2023-01-10T06:25:02.326Z,25.12
2023-01-10T06:27:51.249Z,25.18
2023-01-10T06:30:43.352Z,25.26
2023-01-10T06:33:32.148Z,25.25
2023-01-10T06:36:21.228Z,25.23
2023-01-10T06:39:09.880Z,25.25
2023-01-10T06:41:58.478Z,25.18
2023-01-10T06:44:47.042Z,25.16
2023-01-10T06:47:37.684Z,25.15
2023-01-10T06:50:27.374Z,25.15
2023-01-10T06:53:16.049Z,25.10
2023-01-10T06:56:06.051Z,25.05
2023-01-10T06:58:55.867Z,25.03
2023-01-10T07:01:44.623Z,24.99
2023-01-10T07:04:34.949Z,24.95
2023-01-10T07:07:23.667Z,24.96
2023-01-10T07:10:13.309Z,24.94
2023-01-10T07:13:01.931Z,24.95
2023-01-10T07:15:50.673Z,24.97
2023-01-10T07:18:41.273Z,24.98
2023-01-10T07:21:31.225Z,24.98
2023-01-10T07:24:20.260Z,24.98
2023-01-10T07:27:08.895Z,25.03
2023-01-10T07:29:57.497Z,24.99
2023-01-10T07:32:46.219Z,24.98
2023-01-10T07:35:35.039Z,25.03
2023-01-10T07:38:25.082Z,24.98
2023-01-10T07:41:15.784Z,24.99
2023-01-10T07:44:04.482Z,24.95
2023-01-10T07:46:53.083Z,24.98
2023-01-10T07:49:41.674Z,25.06
2023-01-10T07:52:30.319Z,25.05
2023-01-10T07:55:20.467Z,25.10
2023-01-10T07:58:09.509Z,25.06
2023-01-10T08:00:59.735Z,25.00
2023-01-10T08:03:48.581Z,25.04
2023-01-10T08:06:37.359Z,25.06
2023-01-10T08:09:25.982Z,25.02
2023-01-10T08:12:16.093Z,25.04
2023-01-10T08:15:04.827Z,25.09
2023-01-10T08:17:53.468Z,25.12
2023-01-10T08:20:42.441Z,25.13
2023-01-10T08:23:32.368Z,25.09
2023-01-10T08:26:20.993Z,25.09
2023-01-10T08:29:11.037Z,25.09
2023-01-10T08:31:59.872Z,25.09
2023-01-10T08:34:48.648Z,25.08
2023-01-10T08:37:37.298Z,25.12
2023-01-10T08:40:26.047Z,25.15
2023-01-10T08:43:15.154Z,25.14
2023-01-10T08:46:05.137Z,25.15
2023-01-10T08:48:54.122Z,25.05
2023-01-10T08:51:42.773Z,25.07
2023-01-10T08:54:32.088Z,25.03
2023-01-10T08:57:20.723Z,25.04
2023-01-10T09:00:13.185Z,25.05
2023-01-10T09:03:03.264Z,25.03
2023-01-10T09:05:52.022Z,25.05
2023-01-10T09:08:40.695Z,25.13
2023-01-10T09:11:29.466Z,25.14
2023-01-10T09:14:18.202Z,25.13
2023-01-10T09:17:06.805Z,25.12
2023-01-10T09:19:57.153Z,25.13
2023-01-10T09:22:45.870Z,25.18
2023-01-10T09:25:34.506Z,25.22
2023-01-10T09:28:24.255Z,25.36
2023-01-10T09:31:12.980Z,25.34
2023-01-10T09:34:01.693Z,25.30
2023-01-10T09:36:51.834Z,25.30
2023-01-10T09:39:40.498Z,25.23
2023-01-10T09:42:50.860Z,25.32
2023-01-10T09:45:44.891Z,25.28
2023-01-10T09:48:40.744Z,25.36
2023-01-10T09:51:36.233Z,25.31
2023-01-10T09:54:28.879Z,25.27
2023-01-10T09:57:19.798Z,25.22
2023-01-10T10:00:10.140Z,25.18
2023-01-10T10:02:58.854Z,25.26
2023-01-10T10:05:47.562Z,25.20
2023-01-10T10:08:37.906Z,25.11
2023-01-10T10:11:41.486Z,25.04
2023-01-10T10:14:45.608Z,25.10
2023-01-10T10:17:39.339Z,25.10
2023-01-10T10:20:36.401Z,25.16
2023-01-10T10:23:36.385Z,25.18
2023-01-10T10:26:30.099Z,25.17
2023-01-10T10:29:42.895Z,25.14
2023-01-10T10:32:50.562Z,25.09
2023-01-10T10:35:41.477Z,25.11
2023-01-10T10:38:33.900Z,25.09
2023-01-10T10:41:31.544Z,25.12
2023-01-10T10:44:35.824Z,25.15
2023-01-10T10:47:25.488Z,25.10
2023-01-10T10:50:21.005Z,25.03
2023-01-10T10:53:11.669Z,25.02
2023-01-10T10:56:00.630Z,25.04
2023-01-10T10:58:51.948Z,25.03
2023-01-10T11:01:46.299Z,25.06
2023-01-10T11:04:35.014Z,25.07
2023-01-10T11:07:24.093Z,25.06
2023-01-10T11:10:34.513Z,25.06
2023-01-10T11:13:31.668Z,25.05
2023-01-10T11:16:28.616Z,25.02
2023-01-10T11:19:21.393Z,25.05
2023-01-10T11:22:10.249Z,25.09
2023-01-10T11:25:00.775Z,25.02
2023-01-10T11:27:52.315Z,25.04
2023-01-10T11:30:41.000Z,25.06
2023-01-10T11:33:32.694Z,25.04
2023-01-10T11:36:22.657Z,25.05
2023-01-10T11:39:17.783Z,25.02
2023-01-10T11:42:29.907Z,25.04
2023-01-10T11:45:37.008Z,24.99
2023-01-10T11:48:53.206Z,25.06
2023-01-10T11:51:38.891Z,25.05
2023-01-10T11:54:28.795Z,25.02
2023-01-10T11:57:20.139Z,25.00
2023-01-10T12:00:12.110Z,25.02
2023-01-10T12:03:01.513Z,25.02
2023-01-10T12:05:54.665Z,24.99
2023-01-10T12:08:45.241Z,25.02
2023-01-10T12:11:35.834Z,25.02
2023-01-10T12:14:24.482Z,25.06
2023-01-10T12:17:18.785Z,25.01
2023-01-10T12:20:11.330Z,25.00
2023-01-10T12:23:02.431Z,25.02
2023-01-10T12:26:07.085Z,25.02
2023-01-10T12:29:03.449Z,24.99
2023-01-10T12:31:52.791Z,25.00
2023-01-10T12:34:44.134Z,24.98
2023-01-10T12:37:37.824Z,25.00
2023-01-10T12:40:32.429Z,25.03
2023-01-10T12:43:43.673Z,25.09
2023-01-10T12:47:05.317Z,25.09
2023-01-10T12:49:53.299Z,25.10
2023-01-10T12:52:47.443Z,25.12
2023-01-10T12:55:40.782Z,25.12
2023-01-10T12:58:37.823Z,25.07
2023-01-10T13:01:31.636Z,25.09
2023-01-10T13:04:22.554Z,25.10
2023-01-10T13:07:12.792Z,25.08
2023-01-10T13:10:03.576Z,25.12
2023-01-10T13:12:56.078Z,25.11
2023-01-10T13:15:50.311Z,25.18
2023-01-10T13:18:39.011Z,25.14
2023-01-10T13:21:27.716Z,25.16
2023-01-10T13:24:22.326Z,25.11
2023-01-10T13:27:20.695Z,25.15
2023-01-10T13:30:27.499Z,25.15
2023-01-10T13:33:22.672Z,25.10
2023-01-10T13:36:13.679Z,25.17
2023-01-10T13:39:03.329Z,25.13
2023-01-10T13:42:45.955Z,25.08
2023-01-10T13:45:38.505Z,25.10
2023-01-10T13:48:29.616Z,25.15
2023-01-10T13:51:19.041Z,25.08
2023-01-10T13:54:30.195Z,25.05
2023-01-10T13:57:52.778Z,25.07
2023-01-10T14:01:11.984Z,25.11
2023-01-10T14:04:02.039Z,25.15
2023-01-10T14:06:55.319Z,25.09
2023-01-10T14:09:45.940Z,25.03
2023-01-10T14:12:37.592Z,24.99
2023-01-10T14:15:29.687Z,24.99
2023-01-10T14:18:22.194Z,24.97
2023-01-10T14:21:23.468Z,24.98
2023-01-10T14:24:25.521Z,24.98
2023-01-10T14:27:16.711Z,24.95
2023-01-10T14:30:06.499Z,24.97
2023-01-10T14:32:58.001Z,24.95
2023-01-10T14:35:48.403Z,24.98
2023-01-10T14:38:40.136Z,24.98
2023-01-10T14:41:34.246Z,24.98
2023-01-10T14:44:25.933Z,24.97
2023-01-10T14:47:28.978Z,25.13
2023-01-10T14:50:32.587Z,25.19
2023-01-10T14:53:29.048Z,25.33
2023-01-10T14:56:23.792Z,25.44
2023-01-10T14:59:25.970Z,25.40
2023-01-10T15:02:22.433Z,25.46
2023-01-10T15:05:19.016Z,25.43
2023-01-10T15:08:18.456Z,25.15
2023-01-10T15:11:09.161Z,25.10
2023-01-10T15:14:03.524Z,24.90
2023-01-10T15:16:54.656Z,24.81
2023-01-10T15:19:43.324Z,24.67
2023-01-10T15:22:33.624Z,24.56
2023-01-10T15:25:31.621Z,24.48
2023-01-10T15:28:20.632Z,24.39
2023-01-10T15:31:16.666Z,24.33
2023-01-10T15:34:09.644Z,24.35
2023-01-10T15:37:00.438Z,24.29
2023-01-10T15:39:49.321Z,24.18
2023-01-10T15:42:38.780Z,24.17
2023-01-10T15:45:30.885Z,24.26
2023-01-10T15:48:33.492Z,24.21
2023-01-10T15:51:27.973Z,24.34
2023-01-10T15:54:30.876Z,24.29
2023-01-10T15:57:26.825Z,24.35
2023-01-10T16:00:18.909Z,24.33
2023-01-10T16:03:16.959Z,24.37
2023-01-10T16:06:09.854Z,24.34
2023-01-10T16:09:00.542Z,24.29
2023-01-10T16:12:08.295Z,24.34
2023-01-10T16:14:58.069Z,24.41
2023-01-10T16:17:49.961Z,24.41
2023-01-10T16:20:40.010Z,24.50
2023-01-10T16:23:34.613Z,24.45
2023-01-10T16:26:23.265Z,24.58
2023-01-10T16:29:13.229Z,24.63
2023-01-10T16:32:01.991Z,24.45
2023-01-10T16:34:50.862Z,24.40
2023-01-10T16:37:39.909Z,24.32
2023-01-10T16:40:30.989Z,24.44
2023-01-10T16:43:18.849Z,24.49
2023-01-10T16:46:07.655Z,24.56
2023-01-10T16:48:56.492Z,24.59
2023-01-10T16:51:45.264Z,24.72
2023-01-10T16:54:36.358Z,24.75
2023-01-10T16:57:26.660Z,24.86
2023-01-10T17:00:16.107Z,24.73
2023-01-10T17:03:07.226Z,24.84
2023-01-10T17:05:55.902Z,24.98
2023-01-10T17:08:44.827Z,24.96
2023-01-10T17:11:37.106Z,25.09
2023-01-10T17:14:27.220Z,25.19
2023-01-10T17:17:15.797Z,25.19
2023-01-10T17:20:08.073Z,25.21
2023-01-10T17:22:56.787Z,25.21
2023-01-10T17:25:47.157Z,25.23
2023-01-10T17:28:36.120Z,25.21
2023-01-10T17:31:26.213Z,25.15
2023-01-10T17:34:14.794Z,25.17
2023-01-10T17:37:03.882Z,25.22
2023-01-10T17:39:52.686Z,25.15
2023-01-10T17:42:41.637Z,25.13
2023-01-10T17:45:30.315Z,25.18
2023-01-10T17:48:21.022Z,25.18
2023-01-10T17:51:10.432Z,25.11
2023-01-10T17:53:59.790Z,25.09
2023-01-10T17:56:48.592Z,25.07
2023-01-10T17:59:37.246Z,25.04
2023-01-10T18:02:26.302Z,25.06
2023-01-10T18:05:16.637Z,25.03
2023-01-10T18:08:08.193Z,25.02
2023-01-10T18:11:01.089Z,25.05
2023-01-10T18:13:49.796Z,25.02
2023-01-10T18:16:38.506Z,25.06
2023-01-10T18:19:27.251Z,25.16
2023-01-10T18:22:34.712Z,25.13
2023-01-10T18:25:23.348Z,25.14
2023-01-10T18:28:12.064Z,25.24
2023-01-10T18:31:04.319Z,25.18
2023-01-10T18:33:53.764Z,25.14
2023-01-10T18:36:42.744Z,25.27
2023-01-10T18:39:32.745Z,25.36
2023-01-10T18:42:21.313Z,25.35
2023-01-10T18:45:10.725Z,25.48
2023-01-10T18:47:59.376Z,25.46
2023-01-10T18:50:47.958Z,25.45
2023-01-10T18:53:36.699Z,25.53
2023-01-10T18:56:26.680Z,25.56
2023-01-10T18:59:15.490Z,25.53
2023-01-10T19:02:04.205Z,25.64
2023-01-10T19:04:52.896Z,25.67
2023-01-10T19:07:41.655Z,25.73
2023-01-10T19:10:40.664Z,25.69
2023-01-10T19:13:40.084Z,25.79
2023-01-10T19:16:31.919Z,25.77
2023-01-10T19:19:20.565Z,25.80
2023-01-10T19:22:09.149Z,25.77
2023-01-10T19:24:57.876Z,25.80
2023-01-10T19:27:46.501Z,25.84
2023-01-10T19:30:36.482Z,25.84
2023-01-10T19:33:25.417Z,25.82
2023-01-10T19:36:14.118Z,25.80
2023-01-10T19:39:03.184Z,25.83
2023-01-10T19:41:54.675Z,25.88
2023-01-10T19:44:43.876Z,25.89
2023-01-10T19:47:33.906Z,25.95
2023-01-10T19:50:22.666Z,26.03
2023-01-10T19:53:11.233Z,25.99
2023-01-10T19:56:03.390Z,26.08
2023-01-10T19:58:52.796Z,26.08
2023-01-10T20:01:41.797Z,26.17
2023-01-10T20:04:32.073Z,26.09
2023-01-10T20:07:20.653Z,26.09
2023-01-10T20:10:10.776Z,26.15
2023-01-10T20:12:59.389Z,26.07
2023-01-10T20:15:48.050Z,26.09
2023-01-10T20:18:36.699Z,26.15
2023-01-10T20:21:26.723Z,26.32
2023-01-10T20:24:16.777Z,26.35
2023-01-10T20:27:09.217Z,26.43
2023-01-10T20:29:57.841Z,26.54
2023-01-10T20:32:46.483Z,26.57
2023-01-10T20:35:35.140Z,26.62
2023-01-10T20:38:25.503Z,26.70
2023-01-10T20:41:15.851Z,26.74
2023-01-10T20:44:04.568Z,26.79
2023-01-10T20:46:53.211Z,26.82
2023-01-10T20:49:42.044Z,26.68
2023-01-10T20:52:30.698Z,26.72
2023-01-10T20:55:21.952Z,26.79
2023-01-10T20:58:10.588Z,26.91
2023-01-10T21:00:59.131Z,26.88
2023-01-10T21:03:48.568Z,26.89
2023-01-10T21:06:37.745Z,26.81
2023-01-10T21:09:26.746Z,26.90
2023-01-10T21:12:22.805Z,26.87
2023-01-10T21:15:13.176Z,26.92
2023-01-10T21:18:01.946Z,26.98
2023-01-10T21:20:50.917Z,26.95
2023-01-10T21:23:39.768Z,26.65
2023-01-10T21:26:28.361Z,26.07
2023-01-10T21:29:18.393Z,26.16
2023-01-10T21:32:09.235Z,26.16
2023-01-10T21:34:57.920Z,26.11
2023-01-10T21:37:46.564Z,26.14
2023-01-10T21:40:35.668Z,26.33
2023-01-10T21:43:25.016Z,26.33
2023-01-10T21:46:15.266Z,26.27
2023-01-10T21:49:04.613Z,26.19
2023-01-10T21:51:53.307Z,26.18
2023-01-10T21:54:42.101Z,26.16
2023-01-10T21:57:30.838Z,26.17
2023-01-10T22:00:20.496Z,26.22
2023-01-10T22:03:10.481Z,26.22
2023-01-10T22:05:59.221Z,26.17
2023-01-10T22:08:47.836Z,26.13
2023-01-10T22:11:36.503Z,26.22
2023-01-10T22:14:25.208Z,26.12
2023-01-10T22:17:14.102Z,26.13
2023-01-10T22:20:04.295Z,26.24
2023-01-10T22:22:52.915Z,26.26
2023-01-10T22:25:41.572Z,26.24
2023-01-10T22:28:30.425Z,26.17
2023-01-10T22:31:19.221Z,26.23
2023-01-10T22:34:08.116Z,26.23
2023-01-10T22:36:58.239Z,26.22
2023-01-10T22:39:48.489Z,26.19
2023-01-10T22:42:37.346Z,26.16
2023-01-10T22:45:26.345Z,26.10
2023-01-10T22:48:14.939Z,26.06
2023-01-10T22:51:05.486Z,26.09
2023-01-10T22:53:56.687Z,25.96
2023-01-10T22:56:46.362Z,25.92
2023-01-10T22:59:35.943Z,25.87
2023-01-10T23:02:24.744Z,25.84
2023-01-10T23:05:13.371Z,25.89
2023-01-10T23:08:01.966Z,25.83
2023-01-10T23:10:54.031Z,25.91
2023-01-10T23:13:42.700Z,25.92
2023-01-10T23:16:32.706Z,25.83
2023-01-10T23:19:24.238Z,25.83
2023-01-10T23:22:12.907Z,25.83
2023-01-10T23:25:02.704Z,25.80
2023-01-10T23:27:52.795Z,26.23
2023-01-10T23:30:42.567Z,26.39
2023-01-10T23:33:31.456Z,26.46
2023-01-10T23:36:20.766Z,26.52
2023-01-10T23:39:09.634Z,26.59
2023-01-10T23:41:58.255Z,26.65
2023-01-10T23:44:48.330Z,26.66
2023-01-10T23:47:37.459Z,26.75
2023-01-10T23:50:26.479Z,26.73
2023-01-10T23:53:15.216Z,26.74
2023-01-10T23:56:08.093Z,26.84
2023-01-10T23:58:56.851Z,26.83
